createdAt,value
2022-09-28T00:00:14.013Z,11.20
2022-09-28T00:02:42.063Z,11.20
2022-09-28T00:05:11.180Z,11.20
2022-09-28T00:07:39.635Z,11.40
2022-09-28T00:10:09.547Z,11.50
2022-09-28T00:12:37.677Z,11.40
2022-09-28T00:15:06.085Z,11.50
2022-09-28T00:17:34.699Z,11.50
2022-09-28T00:20:05.612Z,11.40
2022-09-28T00:22:33.825Z,11.40
2022-09-28T00:25:01.794Z,11.40
2022-09-28T00:27:31.245Z,11.30
2022-09-28T00:30:00.084Z,11.40
2022-09-28T00:32:28.631Z,11.50
2022-09-28T00:34:56.721Z,11.60
2022-09-28T00:37:24.899Z,11.50
2022-09-28T00:39:53.705Z,11.50
2022-09-28T00:42:22.578Z,11.70
2022-09-28T00:44:53.062Z,11.60
2022-09-28T00:47:25.526Z,11.70
2022-09-28T00:49:55.426Z,11.50
2022-09-28T00:52:26.629Z,11.50
2022-09-28T00:54:56.061Z,11.50
2022-09-28T00:57:24.821Z,11.60
2022-09-28T00:59:54.209Z,11.50
2022-09-28T01:02:22.664Z,11.50
2022-09-28T01:04:51.607Z,11.80
2022-09-28T01:07:19.864Z,11.70
2022-09-28T01:09:48.558Z,11.60
2022-09-28T01:12:16.668Z,11.50
2022-09-28T01:14:48.123Z,11.50
2022-09-28T01:17:18.831Z,11.70
2022-09-28T01:20:13.880Z,11.70
2022-09-28T01:22:55.402Z,11.70
2022-09-28T01:25:27.271Z,11.80
2022-09-28T01:27:59.651Z,12.10
2022-09-28T01:30:27.813Z,12.00
2022-09-28T01:32:59.585Z,11.90
2022-09-28T01:35:31.352Z,12.00
2022-09-28T01:38:03.437Z,11.80
2022-09-28T01:40:32.792Z,11.90
2022-09-28T01:43:05.070Z,11.70
2022-09-28T01:45:35.963Z,11.80
2022-09-28T01:48:06.060Z,11.90
2022-09-28T01:50:37.043Z,11.90
2022-09-28T01:53:07.978Z,11.80
2022-09-28T01:55:39.131Z,11.50
2022-09-28T01:58:13.828Z,11.40
2022-09-28T02:00:45.099Z,11.20
2022-09-28T02:03:17.778Z,11.10
2022-09-28T02:05:55.805Z,11.10
2022-09-28T02:08:28.443Z,11.10
2022-09-28T02:10:59.563Z,11.20
2022-09-28T02:13:32.227Z,11.20
2022-09-28T02:16:04.067Z,11.30
2022-09-28T02:18:32.583Z,11.40
2022-09-28T02:21:01.793Z,11.30
2022-09-28T02:23:31.625Z,11.40
2022-09-28T02:26:02.403Z,11.40
2022-09-28T02:28:32.086Z,11.50
2022-09-28T02:31:00.314Z,11.70
2022-09-28T02:33:31.303Z,11.50
2022-09-28T02:36:01.009Z,11.70
2022-09-28T02:38:31.464Z,12.00
2022-09-28T02:41:04.754Z,11.80
2022-09-28T02:43:41.301Z,12.00
2022-09-28T02:46:15.166Z,12.00
2022-09-28T02:49:10.571Z,11.80
2022-09-28T02:51:46.965Z,11.80
2022-09-28T02:54:27.067Z,11.50
2022-09-28T02:57:00.851Z,11.40
2022-09-28T02:59:37.274Z,11.60
2022-09-28T03:02:11.982Z,11.30
2022-09-28T03:04:43.541Z,11.30
2022-09-28T03:07:24.614Z,11.10
2022-09-28T03:09:56.010Z,11.10
2022-09-28T03:12:24.822Z,11.20
2022-09-28T03:15:07.830Z,11.20
2022-09-28T03:17:36.499Z,11.20
2022-09-28T03:20:05.175Z,11.20
2022-09-28T03:22:33.271Z,10.90
2022-09-28T03:25:01.541Z,10.90
2022-09-28T03:27:29.685Z,10.90
2022-09-28T03:29:57.793Z,10.80
2022-09-28T03:32:27.508Z,11.00
2022-09-28T03:34:55.825Z,10.90
2022-09-28T03:37:24.060Z,10.80
2022-09-28T03:39:52.286Z,10.70
2022-09-28T03:42:20.189Z,10.70
2022-09-28T03:44:50.848Z,10.60
2022-09-28T03:47:19.467Z,10.70
2022-09-28T03:49:48.822Z,10.70
2022-09-28T03:52:16.859Z,10.70
2022-09-28T03:54:49.101Z,10.70
2022-09-28T03:57:17.648Z,10.70
2022-09-28T03:59:45.681Z,10.70
2022-09-28T04:02:14.026Z,10.90
2022-09-28T04:04:43.488Z,11.00
2022-09-28T04:07:12.859Z,11.00
2022-09-28T04:09:41.412Z,10.80
2022-09-28T04:12:09.459Z,10.80
2022-09-28T04:14:37.563Z,10.80
2022-09-28T04:17:06.290Z,11.10
2022-09-28T04:19:34.455Z,11.10
2022-09-28T04:22:23.309Z,11.00
2022-09-28T04:24:51.369Z,11.00
2022-09-28T04:27:36.964Z,11.20
2022-09-28T04:30:06.231Z,11.20
2022-09-28T04:32:35.631Z,11.00
2022-09-28T04:35:03.652Z,11.10
2022-09-28T04:37:34.401Z,11.00
2022-09-28T04:40:03.356Z,11.00
2022-09-28T04:42:33.178Z,10.80
2022-09-28T04:45:02.229Z,10.70
2022-09-28T04:47:30.768Z,10.70
2022-09-28T04:50:20.561Z,11.00
2022-09-28T04:53:22.311Z,11.10
2022-09-28T04:55:57.791Z,11.00
2022-09-28T04:58:25.970Z,10.90
2022-09-28T05:00:58.077Z,10.80
2022-09-28T05:03:49.038Z,10.80
2022-09-28T05:06:35.291Z,10.80
2022-09-28T05:09:09.320Z,10.70
2022-09-28T05:11:37.765Z,10.70
2022-09-28T05:14:11.745Z,10.90
2022-09-28T05:16:41.346Z,10.90
2022-09-28T05:19:27.474Z,10.80
2022-09-28T05:22:04.491Z,10.60
2022-09-28T05:24:39.536Z,10.70
2022-09-28T05:27:08.000Z,10.70
2022-09-28T05:29:36.517Z,10.60
2022-09-28T05:32:23.344Z,10.80
2022-09-28T05:35:01.140Z,10.70
2022-09-28T05:37:38.895Z,10.90
2022-09-28T05:40:08.798Z,10.80
2022-09-28T05:42:37.012Z,10.80
2022-09-28T05:45:06.425Z,11.00
2022-09-28T05:47:38.075Z,11.10
2022-09-28T05:50:08.823Z,10.80
2022-09-28T05:52:36.934Z,10.70
2022-09-28T05:55:05.502Z,10.70
2022-09-28T05:57:35.621Z,10.90
2022-09-28T06:00:05.106Z,11.00
2022-09-28T06:02:40.790Z,10.80
2022-09-28T06:05:12.336Z,10.60
2022-09-28T06:07:40.514Z,10.60
2022-09-28T06:10:09.294Z,10.90
2022-09-28T06:12:47.939Z,11.00
2022-09-28T06:15:17.825Z,10.90
2022-09-28T06:17:47.425Z,11.10
2022-09-28T06:20:50.997Z,11.00
2022-09-28T06:23:27.432Z,11.00
2022-09-28T06:25:56.590Z,11.10
2022-09-28T06:28:26.917Z,10.90
2022-09-28T06:30:55.264Z,10.90
2022-09-28T06:33:26.359Z,10.90
2022-09-28T06:35:54.576Z,11.00
2022-09-28T06:38:22.555Z,11.20
2022-09-28T06:40:51.124Z,11.10
2022-09-28T06:43:19.455Z,11.10
2022-09-28T06:46:08.230Z,11.00
2022-09-28T06:48:51.537Z,11.10
2022-09-28T06:51:42.322Z,11.20
2022-09-28T06:54:20.335Z,11.20
2022-09-28T06:56:59.611Z,11.10
2022-09-28T06:59:27.794Z,11.00
2022-09-28T07:01:57.452Z,11.00
2022-09-28T07:04:44.007Z,11.20
2022-09-28T07:07:31.487Z,11.30
2022-09-28T07:10:22.146Z,11.20
2022-09-28T07:13:28.099Z,11.30
2022-09-28T07:16:07.324Z,11.30
2022-09-28T07:18:36.945Z,11.30
2022-09-28T07:21:08.652Z,11.30
2022-09-28T07:23:48.932Z,11.30
2022-09-28T07:26:25.684Z,11.40
2022-09-28T07:29:14.084Z,11.60
2022-09-28T07:31:45.227Z,11.70
2022-09-28T07:34:44.635Z,11.60
2022-09-28T07:37:35.829Z,11.50
2022-09-28T07:40:21.747Z,11.60
2022-09-28T07:42:50.452Z,11.70
2022-09-28T07:45:20.702Z,11.50
2022-09-28T07:47:52.272Z,11.50
2022-09-28T07:50:42.986Z,11.40
2022-09-28T07:53:17.514Z,11.50
2022-09-28T07:56:08.718Z,11.50
2022-09-28T07:58:57.112Z,11.80
2022-09-28T08:01:49.509Z,11.80
2022-09-28T08:04:18.439Z,11.90
2022-09-28T08:06:50.540Z,11.80
2022-09-28T08:09:19.890Z,11.70
2022-09-28T08:12:26.508Z,11.60
2022-09-28T08:15:17.549Z,11.70
2022-09-28T08:18:02.644Z,11.80
2022-09-28T08:20:51.645Z,11.80
2022-09-28T08:23:21.991Z,11.80
2022-09-28T08:25:52.541Z,12.00
2022-09-28T08:28:21.976Z,12.10
2022-09-28T08:30:52.573Z,12.30
2022-09-28T08:33:33.182Z,12.40
2022-09-28T08:36:28.409Z,12.40
2022-09-28T08:39:20.912Z,12.40
2022-09-28T08:42:19.145Z,12.40
2022-09-28T08:45:07.204Z,12.40
2022-09-28T08:48:09.733Z,12.50
2022-09-28T08:50:55.532Z,12.50
2022-09-28T08:53:39.626Z,12.60
2022-09-28T08:56:25.424Z,12.60
2022-09-28T08:58:55.610Z,12.70
2022-09-28T09:01:25.125Z,12.90
2022-09-28T09:03:53.321Z,12.90
2022-09-28T09:06:51.741Z,12.90
2022-09-28T09:09:35.261Z,13.00
2022-09-28T09:12:08.294Z,12.90
2022-09-28T09:14:53.458Z,13.00
2022-09-28T09:17:28.563Z,13.20
2022-09-28T09:20:20.221Z,13.40
2022-09-28T09:23:00.211Z,13.50
2022-09-28T09:25:29.642Z,13.60
2022-09-28T09:28:12.390Z,13.70
2022-09-28T09:30:45.996Z,13.60
2022-09-28T09:33:28.152Z,13.70
2022-09-28T09:36:23.782Z,13.90
2022-09-28T09:39:06.394Z,13.90
2022-09-28T09:42:01.633Z,13.90
2022-09-28T09:44:58.465Z,14.20
2022-09-28T09:47:46.370Z,14.30
2022-09-28T09:50:29.979Z,14.20
2022-09-28T09:53:04.369Z,14.30
2022-09-28T09:55:37.154Z,14.40
2022-09-28T09:58:21.811Z,14.30
2022-09-28T10:01:00.630Z,14.30
2022-09-28T10:03:49.451Z,14.40
2022-09-28T10:06:21.760Z,14.50
2022-09-28T10:08:53.872Z,14.60
2022-09-28T10:11:26.651Z,14.50
2022-09-28T10:13:57.757Z,14.60
2022-09-28T10:16:44.066Z,14.70
2022-09-28T10:19:20.359Z,14.90
2022-09-28T10:22:14.720Z,14.90
2022-09-28T10:24:45.226Z,14.90
2022-09-28T10:27:15.780Z,14.80
2022-09-28T10:29:46.936Z,14.90
2022-09-28T10:32:21.047Z,14.90
2022-09-28T10:34:51.047Z,15.00
2022-09-28T10:37:24.326Z,15.20
2022-09-28T10:40:07.054Z,15.50
2022-09-28T10:42:36.456Z,15.50
2022-09-28T10:45:19.902Z,15.70
2022-09-28T10:47:50.678Z,15.70
2022-09-28T10:50:21.723Z,15.60
2022-09-28T10:52:52.320Z,15.60
2022-09-28T10:55:38.905Z,15.80
2022-09-28T10:58:29.858Z,15.70
2022-09-28T11:01:02.550Z,15.60
2022-09-28T11:03:32.539Z,15.50
2022-09-28T11:06:06.938Z,15.60
2022-09-28T11:08:38.519Z,15.60
2022-09-28T11:11:09.806Z,15.60
2022-09-28T11:13:42.127Z,15.90
2022-09-28T11:16:20.279Z,15.90
2022-09-28T11:18:50.328Z,15.90
2022-09-28T11:21:19.656Z,16.00
2022-09-28T11:23:58.409Z,16.10
2022-09-28T11:26:26.693Z,16.30
2022-09-28T11:28:54.990Z,16.50
2022-09-28T11:31:34.781Z,16.30
2022-09-28T11:34:15.131Z,16.20
2022-09-28T11:37:03.339Z,16.40
2022-09-28T11:39:35.822Z,16.30
2022-09-28T11:42:10.989Z,16.50
2022-09-28T11:44:46.493Z,16.40
2022-09-28T11:47:31.539Z,16.50
2022-09-28T11:50:03.085Z,16.50
2022-09-28T11:52:38.167Z,16.50
2022-09-28T11:55:07.542Z,16.50
2022-09-28T11:57:37.998Z,16.70
2022-09-28T12:00:08.101Z,16.90
2022-09-28T12:02:47.553Z,16.80
2022-09-28T12:05:22.786Z,17.00
2022-09-28T12:07:55.763Z,16.80
2022-09-28T12:10:47.668Z,16.90
2022-09-28T12:13:20.558Z,17.20
2022-09-28T12:18:44.892Z,17.60
2022-09-28T12:21:23.518Z,17.50
2022-09-28T12:23:57.570Z,17.60
2022-09-28T12:26:29.540Z,17.40
2022-09-28T12:29:02.995Z,17.40
2022-09-28T12:31:34.587Z,17.40
2022-09-28T12:34:03.274Z,17.20
2022-09-28T12:36:40.438Z,17.20
2022-09-28T12:39:30.831Z,16.90
2022-09-28T12:42:08.988Z,16.70
2022-09-28T12:44:42.880Z,16.60
2022-09-28T12:47:29.740Z,16.40
2022-09-28T12:53:00.733Z,16.10
2022-09-28T12:55:38.080Z,16.40
2022-09-28T12:58:12.018Z,16.70
2022-09-28T13:00:47.785Z,16.90
2022-09-28T13:03:31.773Z,16.70
2022-09-28T13:06:20.839Z,16.70
2022-09-28T13:08:57.059Z,16.90
2022-09-28T13:11:31.944Z,16.90
2022-09-28T13:14:09.930Z,17.20
2022-09-28T13:16:41.643Z,17.30
2022-09-28T13:19:16.870Z,17.20
2022-09-28T13:21:49.291Z,17.30
2022-09-28T13:24:32.196Z,17.30
2022-09-28T13:27:04.493Z,17.40
2022-09-28T13:29:35.069Z,17.30
2022-09-28T13:32:04.215Z,16.90
2022-09-28T13:34:35.306Z,16.70
2022-09-28T13:37:11.235Z,16.80
2022-09-28T13:39:48.830Z,16.90
2022-09-28T13:42:31.912Z,17.20
2022-09-28T13:45:18.244Z,17.30
2022-09-28T13:47:54.903Z,17.30
2022-09-28T13:50:28.693Z,17.00
2022-09-28T13:53:02.317Z,16.70
2022-09-28T13:55:35.850Z,16.80
2022-09-28T13:58:06.552Z,17.20
2022-09-28T14:00:39.575Z,17.50
2022-09-28T14:03:14.985Z,17.30
2022-09-28T14:05:47.543Z,17.10
2022-09-28T14:08:27.992Z,17.10
2022-09-28T14:10:58.427Z,16.90
2022-09-28T14:13:41.400Z,16.40
2022-09-28T14:16:23.101Z,15.70
2022-09-28T14:18:52.295Z,15.40
2022-09-28T14:21:27.157Z,15.20
2022-09-28T14:24:05.451Z,15.20
2022-09-28T14:26:49.181Z,15.20
2022-09-28T14:29:22.962Z,15.30
2022-09-28T14:31:51.323Z,15.50
2022-09-28T14:34:28.155Z,15.50
2022-09-28T14:37:13.927Z,15.40
2022-09-28T14:40:02.418Z,15.40
2022-09-28T14:42:32.416Z,15.50
2022-09-28T14:45:20.024Z,15.50
2022-09-28T14:48:15.197Z,15.60
2022-09-28T14:50:43.607Z,15.60
2022-09-28T14:53:13.461Z,15.80
2022-09-28T14:55:50.217Z,15.70
2022-09-28T14:58:22.500Z,15.70
2022-09-28T15:00:53.320Z,16.00
2022-09-28T15:03:21.839Z,16.10
2022-09-28T15:05:50.003Z,16.00
2022-09-28T15:08:21.023Z,16.10
2022-09-28T15:10:50.240Z,16.30
2022-09-28T15:13:21.801Z,16.50
2022-09-28T15:15:51.128Z,16.50
2022-09-28T15:18:42.599Z,16.40
2022-09-28T15:21:11.142Z,16.50
2022-09-28T15:23:40.280Z,16.40
2022-09-28T15:26:09.199Z,16.30
2022-09-28T15:28:44.927Z,16.40
2022-09-28T15:31:17.715Z,16.50
2022-09-28T15:34:03.048Z,16.50
2022-09-28T15:36:32.791Z,16.70
2022-09-28T15:39:01.987Z,17.10
2022-09-28T15:41:31.273Z,17.00
2022-09-28T15:44:09.352Z,17.00
2022-09-28T15:46:39.498Z,17.10
2022-09-28T15:49:09.106Z,17.10
2022-09-28T15:51:47.498Z,17.00
2022-09-28T15:54:19.411Z,16.80
2022-09-28T15:56:57.067Z,16.70
2022-09-28T15:59:31.901Z,16.70
2022-09-28T16:02:08.256Z,16.70
2022-09-28T16:04:38.436Z,16.70
2022-09-28T16:07:18.366Z,16.80
2022-09-28T16:10:00.727Z,16.90
2022-09-28T16:12:32.097Z,17.20
2022-09-28T16:15:05.120Z,17.30
2022-09-28T16:17:34.978Z,17.10
2022-09-28T16:20:04.482Z,17.10
2022-09-28T16:22:33.628Z,17.00
2022-09-28T16:25:02.169Z,17.00
2022-09-28T16:27:31.591Z,16.90
2022-09-28T16:30:16.356Z,16.70
2022-09-28T16:32:51.395Z,16.90
2022-09-28T16:35:21.170Z,17.00
2022-09-28T16:37:50.497Z,16.90
2022-09-28T16:40:18.694Z,17.10
2022-09-28T16:42:49.369Z,16.80
2022-09-28T16:45:21.036Z,16.80
2022-09-28T16:47:52.943Z,16.70
2022-09-28T16:50:22.170Z,16.60
2022-09-28T16:53:08.508Z,16.50
2022-09-28T16:55:40.992Z,16.40
2022-09-28T16:58:09.562Z,16.30
2022-09-28T17:00:39.233Z,16.30
2022-09-28T17:03:12.821Z,16.40
2022-09-28T17:05:41.238Z,16.20
2022-09-28T17:08:13.467Z,16.30
2022-09-28T17:11:02.505Z,16.00
2022-09-28T17:13:34.591Z,16.00
2022-09-28T17:16:06.323Z,16.20
2022-09-28T17:18:37.439Z,16.40
2022-09-28T17:21:06.434Z,16.40
2022-09-28T17:23:34.639Z,16.10
2022-09-28T17:26:03.137Z,15.90
2022-09-28T17:28:32.497Z,15.80
2022-09-28T17:31:01.014Z,15.60
2022-09-28T17:33:30.734Z,15.50
2022-09-28T17:36:00.238Z,15.50
2022-09-28T17:38:28.584Z,15.40
2022-09-28T17:40:57.023Z,15.50
2022-09-28T17:43:25.267Z,15.50
2022-09-28T17:45:53.826Z,15.30
2022-09-28T17:48:24.305Z,15.20
2022-09-28T17:50:56.485Z,15.30
2022-09-28T17:53:25.001Z,15.10
2022-09-28T17:55:53.214Z,14.90
2022-09-28T17:58:22.219Z,15.10
2022-09-28T18:00:51.277Z,15.20
2022-09-28T18:03:20.401Z,15.10
2022-09-28T18:05:49.788Z,15.00
2022-09-28T18:08:20.196Z,15.00
2022-09-28T18:10:48.527Z,14.90
2022-09-28T18:13:16.715Z,14.70
2022-09-28T18:15:45.152Z,14.70
2022-09-28T18:18:13.372Z,14.60
2022-09-28T18:20:42.095Z,14.50
2022-09-28T18:23:10.565Z,14.50
2022-09-28T18:25:41.759Z,14.50
2022-09-28T18:28:10.348Z,14.40
2022-09-28T18:30:40.098Z,14.50
2022-09-28T18:33:08.446Z,14.50
2022-09-28T18:35:36.770Z,14.40
2022-09-28T18:38:06.205Z,14.40
2022-09-28T18:40:34.277Z,14.50
2022-09-28T18:43:04.013Z,14.50
2022-09-28T18:45:33.143Z,14.60
2022-09-28T18:48:01.213Z,14.50
2022-09-28T18:50:29.296Z,14.30
2022-09-28T18:53:11.485Z,14.30
2022-09-28T18:55:40.322Z,14.10
2022-09-28T18:58:13.527Z,14.10
2022-09-28T19:00:42.743Z,14.20
2022-09-28T19:03:12.003Z,14.30
2022-09-28T19:05:42.219Z,14.20
2022-09-28T19:08:10.703Z,14.50
2022-09-28T19:10:38.889Z,14.50
2022-09-28T19:13:06.947Z,14.20
2022-09-28T19:15:36.389Z,13.90
2022-09-28T19:18:04.916Z,13.80
2022-09-28T19:20:33.545Z,13.80
2022-09-28T19:23:02.127Z,13.80
2022-09-28T19:25:30.399Z,13.70
2022-09-28T19:28:01.142Z,13.70
2022-09-28T19:30:29.241Z,13.60
2022-09-28T19:32:58.773Z,13.70
2022-09-28T19:35:26.688Z,13.80
2022-09-28T19:37:54.807Z,13.90
2022-09-28T19:40:23.078Z,13.80
2022-09-28T19:42:51.122Z,13.80
2022-09-28T19:45:19.167Z,13.80
2022-09-28T19:47:49.813Z,13.50
2022-09-28T19:50:19.325Z,13.60
2022-09-28T19:52:47.376Z,13.50
2022-09-28T19:55:17.303Z,13.40
2022-09-28T19:57:48.041Z,13.50
2022-09-28T20:00:16.795Z,13.50
2022-09-28T20:02:44.991Z,13.30
2022-09-28T20:05:13.099Z,13.30
2022-09-28T20:07:42.966Z,13.20
2022-09-28T20:10:11.952Z,13.10
2022-09-28T20:13:00.364Z,13.00
2022-09-28T20:15:48.665Z,13.00
2022-09-28T20:18:36.435Z,13.00
2022-09-28T20:21:26.825Z,13.00
2022-09-28T20:24:16.382Z,13.00
2022-09-28T20:27:04.559Z,13.00
2022-09-28T20:29:50.379Z,12.90
2022-09-28T20:32:40.573Z,12.80
2022-09-28T20:35:32.617Z,12.70
2022-09-28T20:38:21.029Z,12.70
2022-09-28T20:41:06.442Z,12.70
2022-09-28T20:43:54.611Z,12.60
2022-09-28T20:46:35.593Z,12.70
2022-09-28T20:49:23.895Z,12.80
2022-09-28T20:52:11.443Z,12.70
2022-09-28T20:54:59.578Z,12.60
2022-09-28T20:57:49.442Z,12.60
2022-09-28T21:00:37.623Z,12.60
2022-09-28T21:03:25.456Z,12.60
2022-09-28T21:06:14.211Z,12.70
2022-09-28T21:09:02.520Z,12.50
2022-09-28T21:11:50.623Z,12.40
2022-09-28T21:14:33.486Z,12.50
2022-09-28T21:17:22.770Z,12.40
2022-09-28T21:20:03.413Z,12.30
2022-09-28T21:22:51.648Z,12.30
2022-09-28T21:25:32.402Z,12.30
2022-09-28T21:28:20.627Z,12.20
2022-09-28T21:31:03.490Z,12.10
2022-09-28T21:33:51.693Z,12.00
2022-09-28T21:36:33.518Z,12.00
2022-09-28T21:39:21.637Z,12.00
2022-09-28T21:42:09.573Z,11.90
2022-09-28T21:44:59.566Z,11.90
2022-09-28T21:47:53.445Z,11.90
2022-09-28T21:50:41.616Z,11.80
2022-09-28T21:53:29.499Z,11.90
2022-09-28T21:56:18.658Z,11.90
2022-09-28T21:59:07.502Z,11.80
2022-09-28T22:01:56.133Z,11.80
2022-09-28T22:04:38.434Z,11.80
2022-09-28T22:07:26.617Z,11.90
2022-09-28T22:10:07.425Z,11.80
2022-09-28T22:12:57.170Z,11.80
2022-09-28T22:15:37.462Z,11.80
2022-09-28T22:18:25.672Z,11.80
2022-09-28T22:21:08.507Z,11.90
2022-09-28T22:23:56.667Z,12.00
2022-09-28T22:26:45.520Z,12.20
2022-09-28T22:29:33.607Z,11.90
2022-09-28T22:32:21.456Z,11.70
2022-09-28T22:35:09.747Z,11.60
2022-09-28T22:37:59.440Z,11.60
2022-09-28T22:40:49.889Z,11.50
2022-09-28T22:43:38.450Z,11.30
2022-09-28T22:46:27.788Z,11.30
2022-09-28T22:49:15.516Z,11.30
2022-09-28T22:52:03.685Z,11.30
2022-09-28T22:54:47.470Z,11.40
2022-09-28T22:57:35.611Z,11.50
2022-09-28T23:00:30.527Z,11.40
2022-09-28T23:03:18.698Z,11.20
2022-09-28T23:06:00.500Z,11.20
2022-09-28T23:08:48.600Z,11.30
2022-09-28T23:11:37.526Z,11.20
2022-09-28T23:14:19.202Z,11.20
2022-09-28T23:17:13.462Z,11.10
2022-09-28T23:20:01.683Z,11.00
2022-09-28T23:22:49.452Z,11.10
2022-09-28T23:25:37.731Z,11.10
2022-09-28T23:28:27.479Z,11.10
2022-09-28T23:31:15.740Z,11.10
2022-09-28T23:34:03.474Z,11.00
2022-09-28T23:36:51.940Z,11.00
2022-09-28T23:39:32.487Z,11.10
2022-09-28T23:42:20.606Z,11.00
2022-09-28T23:45:03.486Z,11.10
2022-09-28T23:47:51.756Z,11.00
2022-09-28T23:50:32.510Z,11.00
2022-09-28T23:53:20.654Z,10.80
2022-09-28T23:56:01.473Z,10.90
2022-09-28T23:58:56.568Z,11.10
